East Farms, Washington
Current Conditions -  °F | °C
As of 12:53 AM on Saturday 20 Dec 2014 (Local Time) from KSFF Reporting Station
Clear Clear  
Wind Chill:   Ceiling: Unl
Heat Index:   Visibility: 10mi
Dew Point:   Wind: 5mph
Humidity: 89%   Direction: 20°NNE
Pressure: 29.98"   Gusts: NA
Location:  47.7153°N, 117.066°W
Report Text: KSFF 200853Z AUTO 02004KT 10SM CLR 02/01 A2998 RMK AO2 SLP163 T00220006 58010
Loading
Personal Weather Stations






























Interactive Weather Map New forecast layout! Learn more

10-Day Weather Forecast

Advertisements
Track Severe Weather on mobile